createdAt,value
2019-05-02T00:00:13.885Z,54.90
2019-05-02T00:02:45.742Z,55.00
2019-05-02T00:05:17.362Z,54.90
2019-05-02T00:07:48.682Z,55.00
2019-05-02T00:10:24.742Z,55.00
2019-05-02T00:12:53.350Z,55.00
2019-05-02T00:15:25.395Z,55.10
2019-05-02T00:17:56.871Z,55.10
2019-05-02T00:20:29.063Z,55.20
2019-05-02T00:23:00.146Z,55.30
2019-05-02T00:25:31.562Z,55.30
2019-05-02T00:28:02.651Z,55.20
2019-05-02T00:30:36.081Z,55.20
2019-05-02T00:33:10.359Z,55.20
2019-05-02T00:35:40.997Z,55.20
2019-05-02T00:38:13.146Z,55.10
2019-05-02T00:40:46.462Z,55.00
2019-05-02T00:43:17.740Z,55.20
2019-05-02T00:45:48.891Z,55.20
2019-05-02T00:48:25.875Z,55.20
2019-05-02T00:50:57.005Z,55.20
2019-05-02T00:53:28.115Z,55.20
2019-05-02T00:55:58.902Z,55.20
2019-05-02T00:58:31.946Z,55.20
2019-05-02T01:01:29.600Z,55.20
2019-05-02T01:04:04.302Z,55.20
2019-05-02T01:06:35.870Z,55.20
2019-05-02T01:09:11.028Z,55.10
2019-05-02T01:11:41.677Z,55.10
2019-05-02T01:14:13.682Z,55.00
2019-05-02T01:16:49.416Z,55.10
2019-05-02T01:19:18.711Z,55.10
2019-05-02T01:21:49.786Z,55.20
2019-05-02T01:24:21.199Z,55.10
2019-05-02T01:27:04.521Z,55.20
2019-05-02T01:29:39.278Z,55.20
2019-05-02T01:32:17.378Z,55.20
2019-05-02T01:34:56.974Z,55.20
2019-05-02T01:37:35.406Z,55.30
2019-05-02T01:40:06.718Z,55.90
2019-05-02T01:42:39.896Z,55.30
2019-05-02T01:45:12.551Z,54.80
2019-05-02T01:47:44.110Z,55.10
2019-05-02T01:50:16.178Z,55.10
2019-05-02T01:52:47.499Z,55.10
2019-05-02T01:55:21.130Z,55.10
2019-05-02T01:57:51.418Z,55.10
2019-05-02T02:00:22.926Z,55.20
2019-05-02T02:02:54.430Z,55.30
2019-05-02T02:05:27.612Z,55.30
2019-05-02T02:07:58.155Z,55.20
2019-05-02T02:10:29.059Z,55.10
2019-05-02T02:13:04.927Z,55.10
2019-05-02T02:15:32.970Z,55.30
2019-05-02T02:18:03.819Z,55.20
2019-05-02T02:20:52.102Z,55.20
2019-05-02T02:23:49.753Z,55.30
2019-05-02T02:26:20.390Z,55.10
2019-05-02T02:28:51.494Z,55.10
2019-05-02T02:31:22.767Z,55.10
2019-05-02T02:33:53.815Z,55.10
2019-05-02T02:36:31.249Z,55.20
2019-05-02T02:38:58.168Z,55.20
2019-05-02T02:41:29.307Z,55.30
2019-05-02T02:44:20.025Z,55.40
2019-05-02T02:46:51.148Z,55.60
2019-05-02T02:49:24.669Z,55.70
2019-05-02T02:51:57.798Z,55.90
2019-05-02T02:54:27.462Z,55.80
2019-05-02T02:56:58.690Z,55.70
2019-05-02T02:59:29.416Z,55.70
2019-05-02T03:02:08.994Z,55.70
2019-05-02T03:04:34.050Z,55.70
2019-05-02T03:07:05.419Z,55.70
2019-05-02T03:09:36.751Z,55.60
2019-05-02T03:12:25.218Z,55.50
2019-05-02T03:14:57.955Z,55.70
2019-05-02T03:17:29.213Z,55.70
2019-05-02T03:20:03.686Z,55.70
2019-05-02T03:22:41.074Z,55.60
2019-05-02T03:25:07.158Z,55.60
2019-05-02T03:27:40.440Z,55.80
2019-05-02T03:30:29.381Z,55.90
2019-05-02T03:33:02.723Z,56.90
2019-05-02T03:35:18.708Z,57.10
2019-05-02T03:37:51.450Z,57.30
2019-05-02T03:40:22.646Z,57.60
2019-05-02T03:42:54.218Z,57.60
2019-05-02T03:45:25.324Z,57.70
2019-05-02T03:47:56.991Z,57.80
2019-05-02T03:50:32.731Z,57.80
2019-05-02T03:53:01.656Z,58.00
2019-05-02T03:55:33.952Z,57.90
2019-05-02T03:58:13.476Z,57.10
2019-05-02T04:00:37.795Z,57.00
2019-05-02T04:03:09.695Z,57.00
2019-05-02T04:05:42.302Z,56.90
2019-05-02T04:08:21.351Z,56.90
2019-05-02T04:11:22.649Z,56.80
2019-05-02T04:13:57.019Z,56.90
2019-05-02T04:16:29.659Z,56.90
2019-05-02T04:19:05.655Z,57.00
2019-05-02T04:21:37.247Z,57.10
2019-05-02T04:24:13.648Z,57.10
2019-05-02T04:26:52.572Z,57.20
2019-05-02T04:29:13.819Z,57.30
2019-05-02T04:31:45.038Z,57.10
2019-05-02T04:34:17.887Z,57.00
2019-05-02T04:36:59.770Z,56.70
2019-05-02T04:39:21.992Z,56.10
2019-05-02T04:41:52.975Z,55.80
2019-05-02T04:44:32.253Z,55.30
2019-05-02T04:47:02.653Z,54.90
2019-05-02T04:49:35.369Z,54.40
2019-05-02T04:52:10.595Z,53.30
2019-05-02T04:54:34.570Z,52.20
2019-05-02T04:57:08.429Z,51.10
2019-05-02T04:59:39.722Z,50.60
2019-05-02T05:02:10.686Z,49.30
2019-05-02T05:04:46.073Z,48.40
2019-05-02T05:07:15.019Z,47.10
2019-05-02T05:09:47.914Z,46.50
2019-05-02T05:12:19.523Z,45.80
2019-05-02T05:14:50.946Z,44.90
2019-05-02T05:17:25.138Z,44.30
2019-05-02T05:19:57.395Z,43.90
2019-05-02T05:22:28.418Z,43.20
2019-05-02T05:25:07.576Z,43.20
2019-05-02T05:27:38.350Z,43.00
2019-05-02T05:30:15.156Z,43.10
2019-05-02T05:32:41.529Z,42.70
2019-05-02T05:35:13.118Z,42.40
2019-05-02T05:37:51.230Z,42.50
2019-05-02T05:40:17.693Z,42.00
2019-05-02T05:42:48.502Z,42.30
2019-05-02T05:45:20.075Z,41.40
2019-05-02T05:47:52.325Z,41.00
2019-05-02T05:50:23.315Z,40.80
2019-05-02T05:52:54.647Z,40.60
2019-05-02T05:55:25.630Z,40.40
2019-05-02T05:58:00.988Z,40.50
2019-05-02T06:00:30.047Z,40.90
2019-05-02T06:03:10.862Z,40.70
2019-05-02T06:05:38.495Z,40.90
2019-05-02T06:08:08.178Z,41.30
2019-05-02T06:10:43.864Z,41.30
2019-05-02T06:13:12.976Z,41.50
2019-05-02T06:15:45.897Z,41.40
2019-05-02T06:18:17.950Z,41.50
2019-05-02T06:20:48.983Z,41.80
2019-05-02T06:23:19.966Z,41.10
2019-05-02T06:25:51.047Z,40.90
2019-05-02T06:28:22.191Z,41.10
2019-05-02T06:30:53.431Z,41.30
2019-05-02T06:33:25.802Z,41.70
2019-05-02T06:36:01.412Z,41.30
2019-05-02T06:38:31.799Z,40.80
2019-05-02T06:41:04.226Z,40.30
2019-05-02T06:43:35.358Z,40.40
2019-05-02T06:46:15.953Z,40.00
2019-05-02T06:48:39.404Z,39.50
2019-05-02T06:51:19.124Z,38.90
2019-05-02T06:53:47.106Z,38.60
2019-05-02T06:56:16.851Z,37.60
2019-05-02T06:58:47.899Z,37.60
2019-05-02T07:01:21.253Z,36.60
2019-05-02T07:03:52.633Z,36.30
2019-05-02T07:06:23.681Z,36.30
2019-05-02T07:08:54.716Z,35.80
2019-05-02T07:11:26.362Z,35.70
2019-05-02T07:13:57.198Z,35.60
2019-05-02T07:16:59.146Z,35.10
2019-05-02T07:19:37.062Z,34.80
2019-05-02T07:22:08.098Z,34.10
2019-05-02T07:24:39.322Z,33.70
2019-05-02T07:27:10.567Z,33.70
2019-05-02T07:29:41.967Z,32.50
2019-05-02T07:32:13.246Z,32.20
2019-05-02T07:34:48.262Z,31.70
2019-05-02T07:37:16.986Z,31.50
2019-05-02T07:39:48.378Z,31.10
2019-05-02T07:42:19.735Z,30.80
2019-05-02T07:44:50.511Z,31.40
2019-05-02T07:47:21.653Z,31.70
2019-05-02T07:49:52.522Z,32.00
2019-05-02T07:52:23.794Z,31.70
2019-05-02T07:54:56.111Z,31.60
2019-05-02T07:57:30.389Z,32.00
2019-05-02T08:00:02.449Z,32.20
2019-05-02T08:02:33.992Z,31.70
2019-05-02T08:05:08.581Z,31.30
2019-05-02T08:07:38.542Z,31.10
2019-05-02T08:10:09.735Z,30.70
2019-05-02T08:12:42.323Z,30.30
2019-05-02T08:15:15.176Z,30.20
2019-05-02T08:17:53.323Z,29.40
2019-05-02T08:20:19.824Z,28.90
2019-05-02T08:22:52.206Z,28.30
2019-05-02T08:25:23.474Z,28.00
2019-05-02T08:28:15.756Z,28.10
2019-05-02T08:30:45.234Z,27.80
2019-05-02T08:33:16.528Z,27.90
2019-05-02T08:35:47.863Z,27.90
2019-05-02T08:38:19.036Z,27.40
2019-05-02T08:40:50.126Z,27.10
2019-05-02T08:43:21.110Z,26.60
2019-05-02T08:45:52.565Z,26.10
2019-05-02T08:48:23.614Z,25.90
2019-05-02T08:50:54.971Z,25.70
2019-05-02T08:53:25.818Z,25.80
2019-05-02T08:55:56.862Z,25.30
2019-05-02T08:58:27.821Z,24.70
2019-05-02T09:00:59.215Z,24.90
2019-05-02T09:03:38.926Z,24.50
2019-05-02T09:06:06.085Z,24.40
2019-05-02T09:08:35.810Z,24.50
2019-05-02T09:11:07.246Z,24.20
2019-05-02T09:13:38.263Z,24.00
2019-05-02T09:16:09.386Z,24.00
2019-05-02T09:18:50.037Z,23.30
2019-05-02T09:21:14.097Z,23.10
2019-05-02T09:23:45.439Z,22.80
2019-05-02T09:26:16.938Z,23.00
2019-05-02T09:28:48.030Z,23.10
2019-05-02T09:31:19.326Z,23.00
2019-05-02T09:33:52.034Z,22.70
2019-05-02T09:36:24.018Z,22.80
2019-05-02T09:38:57.549Z,22.60
2019-05-02T09:41:32.439Z,22.70
2019-05-02T09:44:02.870Z,23.20
2019-05-02T09:46:34.582Z,23.60
2019-05-02T09:49:11.848Z,23.90
2019-05-02T09:51:39.187Z,25.00
2019-05-02T09:54:11.976Z,25.20
2019-05-02T09:56:43.262Z,25.30
2019-05-02T09:59:26.777Z,25.00
2019-05-02T10:01:48.271Z,24.90
2019-05-02T10:04:19.187Z,24.80
2019-05-02T10:06:52.294Z,24.50
2019-05-02T10:09:27.012Z,24.20
2019-05-02T10:11:56.026Z,24.00
2019-05-02T10:14:27.022Z,24.40
2019-05-02T10:17:05.087Z,24.90
2019-05-02T10:19:32.534Z,24.50
2019-05-02T10:22:03.254Z,24.90
2019-05-02T10:24:34.283Z,25.50
2019-05-02T10:27:08.487Z,25.90
2019-05-02T10:29:37.988Z,26.70
2019-05-02T10:32:15.087Z,27.10
2019-05-02T10:34:42.272Z,27.70
2019-05-02T10:37:13.499Z,27.70
2019-05-02T10:39:44.534Z,28.00
2019-05-02T10:42:15.684Z,28.00
2019-05-02T10:44:46.650Z,28.10
2019-05-02T10:47:17.997Z,28.30
2019-05-02T10:49:56.282Z,28.60
2019-05-02T10:52:29.919Z,28.90
2019-05-02T10:55:02.687Z,29.00
2019-05-02T10:57:34.214Z,28.90
2019-05-02T11:00:06.174Z,29.30
2019-05-02T11:03:12.108Z,29.10
2019-05-02T11:05:47.262Z,29.40
2019-05-02T11:08:18.368Z,29.20
2019-05-02T11:10:49.542Z,28.60
2019-05-02T11:13:32.254Z,28.30
2019-05-02T11:16:23.214Z,28.30
2019-05-02T11:19:16.438Z,28.20
2019-05-02T11:21:56.296Z,28.30
2019-05-02T11:24:22.440Z,27.80
2019-05-02T11:26:54.359Z,27.90
2019-05-02T11:29:25.130Z,28.30
2019-05-02T11:31:56.698Z,28.30
2019-05-02T11:34:27.794Z,28.60
2019-05-02T11:37:01.727Z,29.00
2019-05-02T11:39:43.132Z,28.90
2019-05-02T11:42:06.126Z,29.60
2019-05-02T11:44:37.266Z,29.10
2019-05-02T11:47:08.814Z,28.70
2019-05-02T11:49:39.850Z,28.70
2019-05-02T11:52:11.833Z,28.60
2019-05-02T11:54:44.743Z,28.80
2019-05-02T11:57:16.066Z,29.00
2019-05-02T11:59:47.190Z,28.90
2019-05-02T12:02:58.173Z,29.10
2019-05-02T12:05:39.375Z,29.30
2019-05-02T12:08:12.151Z,29.20
2019-05-02T12:10:43.264Z,29.30
2019-05-02T12:13:16.113Z,29.50
2019-05-02T12:15:47.322Z,29.40
2019-05-02T12:18:20.547Z,29.00
2019-05-02T12:20:52.047Z,28.90
2019-05-02T12:23:24.098Z,28.90
2019-05-02T12:25:55.816Z,28.50
2019-05-02T12:28:28.542Z,28.60
2019-05-02T12:30:59.730Z,28.40
2019-05-02T12:33:34.734Z,28.50
2019-05-02T12:36:08.552Z,28.70
2019-05-02T12:38:41.987Z,28.90
2019-05-02T12:41:20.280Z,28.70
2019-05-02T12:43:45.306Z,29.20
2019-05-02T12:46:16.742Z,29.70
2019-05-02T12:48:47.882Z,29.70
2019-05-02T12:51:18.830Z,29.70
2019-05-02T12:53:50.116Z,29.80
2019-05-02T12:56:22.896Z,30.00
2019-05-02T12:58:54.719Z,30.00
2019-05-02T13:01:25.726Z,30.90
2019-05-02T13:04:08.190Z,30.20
2019-05-02T13:06:39.420Z,29.50
2019-05-02T13:09:12.940Z,28.90
2019-05-02T13:12:06.214Z,27.80
2019-05-02T13:14:37.986Z,27.50
2019-05-02T13:17:11.868Z,27.40
2019-05-02T13:19:55.722Z,27.10
2019-05-02T13:22:41.936Z,27.10
2019-05-02T13:25:16.942Z,27.10
2019-05-02T13:27:48.535Z,26.70
2019-05-02T13:30:32.751Z,26.50
2019-05-02T13:33:05.814Z,26.10
2019-05-02T13:35:44.675Z,26.80
2019-05-02T13:38:19.094Z,26.40
2019-05-02T13:40:51.740Z,26.20
2019-05-02T13:43:26.914Z,26.50
2019-05-02T13:46:14.831Z,25.80
2019-05-02T13:48:46.138Z,25.80
2019-05-02T13:51:17.224Z,26.00
2019-05-02T13:53:56.275Z,26.20
2019-05-02T13:56:46.568Z,25.90
2019-05-02T13:59:18.846Z,26.00
2019-05-02T14:01:52.096Z,26.30
2019-05-02T14:04:24.447Z,26.90
2019-05-02T14:06:55.526Z,27.60
2019-05-02T14:09:53.033Z,27.80
2019-05-02T14:12:42.130Z,27.90
2019-05-02T14:15:13.729Z,28.10
2019-05-02T14:17:45.144Z,28.20
2019-05-02T14:20:22.172Z,28.50
2019-05-02T14:22:52.924Z,27.90
2019-05-02T14:25:24.002Z,27.60
2019-05-02T14:27:55.762Z,27.60
2019-05-02T14:30:37.251Z,28.00
2019-05-02T14:33:04.654Z,28.30
2019-05-02T14:35:37.222Z,28.90
2019-05-02T14:38:13.124Z,28.20
2019-05-02T14:41:04.998Z,28.30
2019-05-02T14:43:57.402Z,28.30
2019-05-02T14:46:33.249Z,28.10
2019-05-02T14:49:02.741Z,28.10
2019-05-02T14:51:36.454Z,28.20
2019-05-02T14:54:08.404Z,28.20
2019-05-02T14:56:56.835Z,28.40
2019-05-02T14:59:28.984Z,28.40
2019-05-02T15:02:03.922Z,28.40
2019-05-02T15:04:38.171Z,27.90
2019-05-02T15:07:08.195Z,26.40
2019-05-02T15:09:39.443Z,25.80
2019-05-02T15:12:15.919Z,25.80
2019-05-02T15:14:43.606Z,25.90
2019-05-02T15:17:15.246Z,25.80
2019-05-02T15:19:47.338Z,25.90
2019-05-02T15:22:18.711Z,26.40
2019-05-02T15:24:49.670Z,25.80
2019-05-02T15:27:22.224Z,25.90
2019-05-02T15:30:00.789Z,26.30
2019-05-02T15:32:46.439Z,26.20
2019-05-02T15:35:26.816Z,26.30
2019-05-02T15:38:02.523Z,26.30
2019-05-02T15:43:09.192Z,25.60
2019-05-02T15:45:36.863Z,25.00
2019-05-02T15:48:09.470Z,25.50
2019-05-02T15:50:52.049Z,26.00
2019-05-02T15:53:32.840Z,26.20
2019-05-02T15:56:04.138Z,26.20
2019-05-02T15:58:35.227Z,26.50
2019-05-02T16:01:22.539Z,25.60
2019-05-02T16:03:54.495Z,25.50
2019-05-02T16:06:31.717Z,24.90
2019-05-02T16:08:59.570Z,24.50
2019-05-02T16:11:32.230Z,24.40
2019-05-02T16:14:04.274Z,24.10
2019-05-02T16:16:36.570Z,24.10
2019-05-02T16:19:13.754Z,24.20
2019-05-02T16:21:47.190Z,24.20
2019-05-02T16:24:25.185Z,24.30
2019-05-02T16:26:57.401Z,24.20
2019-05-02T16:29:29.200Z,24.50
2019-05-02T16:32:21.934Z,24.60
2019-05-02T16:34:58.170Z,24.70
2019-05-02T16:37:29.638Z,24.60
2019-05-02T16:40:02.544Z,24.30
2019-05-02T16:42:35.987Z,24.60
2019-05-02T16:45:11.660Z,24.80
2019-05-02T16:47:44.486Z,25.00
2019-05-02T16:50:18.657Z,25.30
2019-05-02T16:52:50.040Z,25.40
2019-05-02T16:55:26.328Z,25.40
2019-05-02T16:57:56.743Z,25.60
2019-05-02T17:00:31.881Z,25.70
2019-05-02T17:03:04.161Z,25.90
2019-05-02T17:05:39.244Z,25.90
2019-05-02T17:08:32.812Z,26.10
2019-05-02T17:11:14.194Z,25.90
2019-05-02T17:13:44.738Z,26.00
2019-05-02T17:16:17.341Z,26.30
2019-05-02T17:18:52.010Z,26.60
2019-05-02T17:21:22.152Z,26.90
2019-05-02T17:23:53.295Z,27.20
2019-05-02T17:26:24.719Z,27.40
2019-05-02T17:28:56.215Z,27.50
2019-05-02T17:31:27.870Z,27.80
2019-05-02T17:33:59.213Z,27.90
2019-05-02T17:36:32.387Z,28.10
2019-05-02T17:39:06.436Z,29.00
2019-05-02T17:41:41.461Z,28.70
2019-05-02T17:44:12.966Z,29.30
2019-05-02T17:46:43.066Z,29.10
2019-05-02T17:49:14.031Z,29.20
2019-05-02T17:52:26.801Z,29.40
2019-05-02T17:54:57.372Z,29.60
2019-05-02T17:57:32.896Z,29.60
2019-05-02T18:00:02.772Z,29.60
2019-05-02T18:02:34.014Z,29.80
2019-05-02T18:05:05.219Z,30.00
2019-05-02T18:07:36.338Z,29.60
2019-05-02T18:10:14.449Z,29.60
2019-05-02T18:12:42.909Z,29.70
2019-05-02T18:15:15.238Z,29.90
2019-05-02T18:17:46.438Z,30.00
2019-05-02T18:20:18.318Z,30.00
2019-05-02T18:22:51.781Z,30.00
2019-05-02T18:25:25.195Z,30.10
2019-05-02T18:27:55.542Z,30.90
2019-05-02T18:30:27.117Z,30.30
2019-05-02T18:33:03.454Z,30.70
2019-05-02T18:35:32.565Z,31.00
2019-05-02T18:38:04.106Z,31.40
2019-05-02T18:40:37.038Z,31.40
2019-05-02T18:43:09.042Z,31.40
2019-05-02T18:45:42.453Z,31.80
2019-05-02T18:48:13.474Z,32.10
2019-05-02T18:50:47.612Z,32.30
2019-05-02T18:53:27.381Z,32.30
2019-05-02T18:56:01.591Z,32.50
2019-05-02T18:58:36.264Z,32.40
2019-05-02T19:01:08.629Z,32.40
2019-05-02T19:03:38.954Z,32.60
2019-05-02T19:06:11.686Z,32.40
2019-05-02T19:08:49.615Z,32.60
2019-05-02T19:11:18.980Z,33.20
2019-05-02T19:13:52.500Z,32.70
2019-05-02T19:16:28.593Z,33.00
2019-05-02T19:18:57.483Z,33.70
2019-05-02T19:21:31.954Z,33.90
2019-05-02T19:24:03.030Z,34.30
2019-05-02T19:26:34.558Z,34.50
2019-05-02T19:29:22.132Z,34.80
2019-05-02T19:31:54.126Z,35.20
2019-05-02T19:34:26.951Z,35.30
2019-05-02T19:37:03.052Z,35.30
2019-05-02T19:39:32.278Z,35.30
2019-05-02T19:42:03.702Z,34.80
2019-05-02T19:44:35.851Z,34.90
2019-05-02T19:47:08.233Z,35.10
2019-05-02T19:49:42.529Z,35.00
2019-05-02T19:52:13.858Z,35.50
2019-05-02T19:54:44.974Z,36.20
2019-05-02T19:57:17.273Z,36.70
2019-05-02T19:59:49.203Z,36.80
2019-05-02T20:02:22.268Z,36.70
2019-05-02T20:04:58.462Z,36.90
2019-05-02T20:07:29.642Z,37.60
2019-05-02T20:10:01.917Z,37.60
2019-05-02T20:12:33.455Z,37.40
2019-05-02T20:15:04.905Z,37.10
2019-05-02T20:17:36.338Z,37.00
2019-05-02T20:20:12.386Z,36.90
2019-05-02T20:22:45.063Z,36.70
2019-05-02T20:25:16.423Z,36.60
2019-05-02T20:27:47.382Z,36.60
2019-05-02T20:30:18.911Z,36.50
2019-05-02T20:32:51.773Z,36.60
2019-05-02T20:35:23.275Z,36.70
2019-05-02T20:37:55.146Z,37.10
2019-05-02T20:40:31.927Z,37.30
2019-05-02T20:43:03.618Z,37.60
2019-05-02T20:45:34.947Z,37.60
2019-05-02T20:48:06.666Z,37.50
2019-05-02T20:50:38.462Z,37.30
2019-05-02T20:53:12.232Z,37.30
2019-05-02T20:55:42.900Z,37.60
2019-05-02T20:58:14.462Z,37.80
2019-05-02T21:00:45.914Z,38.10
2019-05-02T21:03:17.288Z,38.50
2019-05-02T21:06:12.846Z,38.50
2019-05-02T21:08:56.990Z,38.50
2019-05-02T21:11:29.010Z,38.80
2019-05-02T21:14:01.688Z,38.80
2019-05-02T21:16:33.200Z,38.70
2019-05-02T21:19:04.435Z,38.30
2019-05-02T21:21:36.339Z,38.50
2019-05-02T21:24:07.635Z,38.60
2019-05-02T21:26:38.926Z,38.70
2019-05-02T21:29:11.991Z,38.30
2019-05-02T21:31:42.662Z,38.30
2019-05-02T21:34:14.175Z,38.20
2019-05-02T21:36:45.486Z,38.40
2019-05-02T21:39:16.502Z,38.30
2019-05-02T21:41:47.774Z,38.40
2019-05-02T21:44:19.034Z,38.60
2019-05-02T21:46:51.828Z,38.80
2019-05-02T21:49:40.056Z,38.80
2019-05-02T21:52:33.475Z,38.90
2019-05-02T21:55:32.862Z,38.90
2019-05-02T21:58:04.306Z,40.40
2019-05-02T22:00:53.914Z,39.90
2019-05-02T22:03:26.610Z,39.80
2019-05-02T22:05:57.966Z,39.90
2019-05-02T22:08:33.722Z,39.90
2019-05-02T22:11:05.022Z,40.00
2019-05-02T22:13:36.391Z,40.30
2019-05-02T22:16:07.546Z,40.40
2019-05-02T22:18:38.558Z,40.60
2019-05-02T22:21:09.446Z,41.00
2019-05-02T22:23:42.510Z,41.10
2019-05-02T22:26:13.346Z,41.20
2019-05-02T22:28:44.814Z,41.20
2019-05-02T22:31:16.478Z,41.30
2019-05-02T22:33:47.798Z,41.40
2019-05-02T22:36:18.933Z,41.80
2019-05-02T22:39:09.028Z,41.90
2019-05-02T22:41:41.958Z,41.90
2019-05-02T22:44:13.250Z,42.00
2019-05-02T22:46:44.826Z,42.00
2019-05-02T22:49:15.956Z,42.00
2019-05-02T22:51:47.062Z,42.00
2019-05-02T22:54:27.027Z,41.80
2019-05-02T22:56:52.105Z,41.90
2019-05-02T22:59:23.999Z,42.40
2019-05-02T23:01:56.266Z,42.20
2019-05-02T23:04:27.338Z,42.30
2019-05-02T23:06:58.274Z,42.60
2019-05-02T23:09:29.386Z,42.90
2019-05-02T23:12:02.590Z,43.20
2019-05-02T23:14:33.530Z,43.20
2019-05-02T23:17:05.172Z,43.20
2019-05-02T23:19:36.597Z,43.20
2019-05-02T23:22:07.674Z,43.30
2019-05-02T23:24:52.523Z,43.50
2019-05-02T23:27:42.550Z,44.10
2019-05-02T23:30:15.964Z,44.00
2019-05-02T23:32:46.843Z,44.10
2019-05-02T23:35:18.115Z,44.10
2019-05-02T23:37:49.168Z,44.20
2019-05-02T23:40:20.463Z,44.10
2019-05-02T23:42:52.394Z,44.20
2019-05-02T23:45:23.994Z,44.10
2019-05-02T23:47:54.920Z,44.20
2019-05-02T23:50:26.230Z,44.20
2019-05-02T23:52:57.426Z,44.30
2019-05-02T23:55:28.399Z,44.30
2019-05-02T23:57:59.578Z,44.30
